Aérodrome :
LOGIN :

S'inscrire | Disclaimer

   EN    FR    IT 

 










Légende :    VFR   VFR Marginal   IFR   IFR Intensif   IFR Très Intensif
Visi : 
Plafond : 
>= 8 km
>= 3000ft
5 à 8 km
1000 à 3000 ft
1500m à 5 km
500 à 1000 ft
800 à 1500m
200 à 500 ft
< 800m
< 200 ft
Symboles :   Orages  Brouillard  Fortes neiges  Fortes précipitations  Vent > 20 kt
SIGMETs :   Divers  Orages  Givrage  Turbulence  Onde Orograph.  Cendres Volcan.







- Altitude de l'aérodrome : 158 ft
- Code IATA : QAR


EHDL - Deelen Airbase

DERNIER METAR :
  • 240025Z AUTO VRB02KT 9000 -DZ FEW015CB OVC051 14/13 Q1010 REDZ BLU

METARs EXPIRÉS :
  • 232355Z AUTO VRB02KT 8000 DZ FEW015CB SCT050 BKN073 14/13 Q1011 BLU
  • 232325Z AUTO 12002KT 9999 -RA FEW015CB SCT072 BKN077 14/13 Q1011 BLU
  • 232255Z AUTO 20002KT 9999 FEW015CB OVC090 14/13 Q1011 BLU
  • 232225Z AUTO 22003KT 100V210 9999 FEW015CB SCT062 BKN082 14/13 Q1011 BLU
  • 232155Z AUTO 18006KT 130V240 9999 -RA SCT015CB SCT062 BKN068 14/13 Q1012 RERA REDZ WHT

Prévision TAF périmée.
Pas de NOTAMs connus pour ce terrain.



MET'MAP, la Météo Aéronautique d'un coup d'oeil ! - Copyright ORBIFLY Décembre 2007 - Disclaimer

ORBIFLY MET'MAP TEAM :

Programmation & Développement : Alexandra Zaïnal
Conception & Développement : Baudouin d'Aumeries
Co-Programmation & Développement : Marc-Olivier Méhu
Soutien technique & logistique : Manuel Goepfert

Contact : metmap@orbifly.com




SOURCES & CREDITS :

   NOAA